Time;durP1;ratioP1;P1;durP2;ratioP2;P2;SDS_P1;SDS_P2;PMS_P1;PMS_P2;Temp;Humidity;BMP_temperature;BMP_pressure;BME280_temperature;BME280_humidity;BME280_pressure;Samples;Min_cycle;Max_cycle;Signal;HPM_P1;HPM_P2
2022/10/30 00:01:55;;;;;;;23.23;12.73;;;14.70;99.90;;;;;;4948832;29;20082;-67
2022/10/30 00:04:21;;;;;;;27.02;13.32;;;14.70;99.90;;;;;;4954800;29;20035;-67
2022/10/30 00:06:47;;;;;;;24.42;13.15;;;14.70;99.90;;;;;;4955395;29;20794;-67
2022/10/30 00:09:13;;;;;;;25.23;12.57;;;14.70;99.90;;;;;;4946851;28;20681;-67
2022/10/30 00:11:40;;;;;;;34.00;13.60;;;14.70;99.90;;;;;;4948661;29;20122;-67
2022/10/30 00:14:06;;;;;;;25.30;12.82;;;14.70;99.90;;;;;;4954852;28;20082;-67
2022/10/30 00:16:32;;;;;;;26.90;12.93;;;14.70;99.90;;;;;;4946885;28;20039;-67
2022/10/30 00:18:57;;;;;;;27.58;13.35;;;14.60;99.90;;;;;;4951795;29;20560;-66
2022/10/30 00:21:23;;;;;;;29.58;12.93;;;14.50;99.90;;;;;;4954364;29;20133;-66
2022/10/30 00:23:50;;;;;;;32.15;14.05;;;14.40;99.90;;;;;;4953674;29;20039;-67
2022/10/30 00:26:17;;;;;;;25.63;12.70;;;14.40;99.90;;;;;;4947294;28;20164;-67
2022/10/30 00:28:42;;;;;;;30.73;13.70;;;14.30;99.90;;;;;;4953502;28;20032;-66
2022/10/30 00:31:08;;;;;;;28.77;13.18;;;14.30;99.90;;;;;;4953219;29;20055;-67
2022/10/30 00:33:34;;;;;;;27.35;13.77;;;14.30;99.90;;;;;;4945991;29;20438;-66
2022/10/30 00:36:00;;;;;;;27.55;14.15;;;14.20;99.90;;;;;;4947832;29;20070;-67
2022/10/30 00:38:26;;;;;;;30.10;12.80;;;14.20;99.90;;;;;;4954244;28;20054;-68
2022/10/30 00:40:51;;;;;;;25.45;13.07;;;14.20;99.90;;;;;;4952525;28;20035;-67
2022/10/30 00:43:37;;;;;;;28.92;13.50;;;14.10;99.90;;;;;;4943401;29;20482;-67
2022/10/30 00:46:22;;;;;;;21.85;13.00;;;14.00;99.90;;;;;;4935650;29;20043;-67
2022/10/30 00:49:03;;;;;;;26.23;13.07;;;14.00;99.90;;;;;;4939798;29;20092;-67
2022/10/30 00:51:32;;;;;;;24.80;13.35;;;14.10;99.90;;;;;;4946885;29;20513;-66
2022/10/30 00:54:00;;;;;;;26.10;13.48;;;14.10;99.90;;;;;;4935606;29;20059;-66
2022/10/30 00:56:26;;;;;;;23.98;13.48;;;14.10;99.90;;;;;;4953032;29;20047;-67
2022/10/30 00:59:01;;;;;;;25.48;12.82;;;14.10;99.90;;;;;;4983194;23;20050;-65
2022/10/30 01:01:30;;;;;;;24.98;12.52;;;14.00;99.90;;;;;;4945272;28;20039;-64
2022/10/30 01:03:58;;;;;;;26.08;13.05;;;13.80;99.90;;;;;;4946316;29;20047;-64
2022/10/30 01:06:25;;;;;;;26.13;13.13;;;13.80;99.90;;;;;;4954473;28;20035;-64
2022/10/30 01:08:52;;;;;;;21.55;12.25;;;13.80;99.90;;;;;;4943453;29;20040;-65
2022/10/30 01:11:18;;;;;;;24.88;13.13;;;13.80;99.90;;;;;;4953418;28;20498;-64
2022/10/30 01:13:48;;;;;;;23.55;12.18;;;13.90;99.90;;;;;;4953804;28;20045;-65
2022/10/30 01:16:41;;;;;;;26.65;13.18;;;13.90;99.90;;;;;;4949547;28;20195;-65
2022/10/30 01:19:19;;;;;;;23.42;11.95;;;13.90;99.90;;;;;;4952561;29;20111;-64
2022/10/30 01:22:10;;;;;;;21.33;11.77;;;14.00;99.90;;;;;;4953901;28;20160;-64
2022/10/30 01:24:48;;;;;;;25.30;13.70;;;13.90;99.90;;;;;;4950670;28;20039;-65
2022/10/30 01:27:41;;;;;;;22.73;12.57;;;13.80;99.90;;;;;;4946250;28;20122;-65
2022/10/30 01:30:32;;;;;;;26.25;13.35;;;13.60;99.90;;;;;;4953570;28;20039;-64
2022/10/30 01:33:19;;;;;;;22.02;12.68;;;13.60;99.90;;;;;;4942433;28;20043;-65
2022/10/30 01:36:00;;;;;;;24.02;11.75;;;13.60;99.90;;;;;;4949774;28;20493;-65
2022/10/30 01:38:35;;;;;;;22.27;12.15;;;13.50;99.90;;;;;;4953860;28;20047;-65
2022/10/30 01:41:01;;;;;;;28.20;13.23;;;13.50;99.90;;;;;;4947753;28;20044;-64
2022/10/30 01:43:26;;;;;;;24.02;13.98;;;13.50;99.90;;;;;;4945052;29;20050;-65
2022/10/30 01:46:07;;;;;;;24.08;13.30;;;13.50;99.90;;;;;;4953593;28;20382;-66
2022/10/30 01:49:10;;;;;;;28.48;14.38;;;13.50;99.90;;;;;;4946212;28;20028;-64
2022/10/30 01:51:58;;;;;;;26.08;12.73;;;13.50;99.90;;;;;;4939408;28;20379;-64
2022/10/30 01:54:49;;;;;;;25.27;12.75;;;13.40;99.90;;;;;;4946471;29;20051;-64
2022/10/30 01:57:34;;;;;;;27.67;13.57;;;13.40;99.90;;;;;;4949197;28;20113;-64
2022/10/30 02:00:08;;;;;;;37.17;12.90;;;13.40;99.90;;;;;;4952580;28;20142;-64
2022/10/30 02:02:34;;;;;;;28.98;13.57;;;13.30;99.90;;;;;;4953223;28;20044;-66
2022/10/30 02:05:00;;;;;;;30.55;13.60;;;13.30;99.90;;;;;;4946304;28;20415;-64
2022/10/30 02:07:26;;;;;;;24.73;12.93;;;13.30;99.90;;;;;;4952310;29;20122;-64
2022/10/30 02:09:53;;;;;;;35.70;13.95;;;13.20;99.90;;;;;;4952971;28;20573;-64
2022/10/30 02:12:20;;;;;;;26.55;13.15;;;13.30;99.90;;;;;;4952957;28;20051;-64
2022/10/30 02:14:49;;;;;;;25.80;13.57;;;13.30;99.90;;;;;;4950182;28;20649;-65
2022/10/30 02:17:16;;;;;;;26.00;12.57;;;13.30;99.90;;;;;;4951228;29;20126;-64
2022/10/30 02:19:41;;;;;;;22.60;13.35;;;13.30;99.90;;;;;;4952826;28;20036;-64
2022/10/30 02:22:07;;;;;;;30.50;14.15;;;13.30;99.90;;;;;;4946284;28;20151;-65
2022/10/30 02:24:33;;;;;;;22.48;13.70;;;13.30;99.90;;;;;;4952368;28;20054;-66
2022/10/30 02:26:59;;;;;;;21.05;13.20;;;13.30;99.90;;;;;;4951792;29;20043;-66
2022/10/30 02:29:25;;;;;;;25.30;13.13;;;13.30;99.90;;;;;;4945937;28;20134;-66
2022/10/30 02:31:50;;;;;;;25.38;12.45;;;13.20;99.90;;;;;;4941592;29;20477;-65
2022/10/30 02:34:16;;;;;;;26.55;13.82;;;13.20;99.90;;;;;;4953061;28;20043;-65
2022/10/30 02:36:42;;;;;;;24.90;13.32;;;13.20;99.90;;;;;;4953087;28;20039;-65
2022/10/30 02:39:07;;;;;;;30.20;13.20;;;13.20;99.90;;;;;;4941737;28;20039;-65
2022/10/30 02:41:33;;;;;;;26.77;13.32;;;13.10;99.90;;;;;;4940235;29;20058;-64
2022/10/30 02:43:59;;;;;;;26.35;12.68;;;13.20;99.90;;;;;;4952912;28;20031;-64
2022/10/30 02:46:24;;;;;;;23.23;12.68;;;13.10;99.90;;;;;;4953292;28;20040;-64
2022/10/30 02:48:50;;;;;;;24.55;12.10;;;13.10;99.90;;;;;;4939766;28;20047;-65
2022/10/30 02:51:16;;;;;;;25.52;12.82;;;13.20;99.90;;;;;;4952627;28;20043;-66
2022/10/30 02:53:41;;;;;;;26.98;12.93;;;13.20;99.90;;;;;;4952979;28;20118;-66
2022/10/30 02:56:09;;;;;;;22.60;12.48;;;13.30;99.90;;;;;;4947267;28;20048;-65
2022/10/30 02:58:35;;;;;;;24.55;12.52;;;13.30;99.90;;;;;;4952431;29;20055;-65
2022/10/30 03:01:19;;;;;;;25.23;12.57;;;13.40;99.90;;;;;;4952798;28;20039;-65
2022/10/30 03:03:45;;;;;;;23.77;11.93;;;13.50;99.90;;;;;;4942149;28;20106;-66
2022/10/30 03:06:14;;;;;;;24.23;12.50;;;13.40;99.90;;;;;;4950996;29;20101;-66
2022/10/30 03:08:41;;;;;;;28.85;12.82;;;13.30;99.90;;;;;;4956269;28;20110;-66
2022/10/30 03:11:09;;;;;;;25.13;12.32;;;13.30;99.90;;;;;;4956240;28;20653;-66
2022/10/30 03:13:36;;;;;;;26.63;12.90;;;13.30;99.90;;;;;;4946122;28;20047;-65
2022/10/30 03:16:05;;;;;;;25.73;13.00;;;13.30;99.90;;;;;;4954016;29;20482;-64
2022/10/30 03:18:32;;;;;;;24.23;13.02;;;13.30;99.90;;;;;;4956279;28;20065;-65
2022/10/30 03:20:59;;;;;;;27.20;13.27;;;13.20;99.90;;;;;;4955562;28;20039;-65
2022/10/30 03:23:25;;;;;;;22.20;13.10;;;13.10;99.90;;;;;;4941951;29;20748;-65
2022/10/30 03:25:53;;;;;;;27.48;13.73;;;13.10;99.90;;;;;;4952582;29;20046;-65
2022/10/30 03:28:18;;;;;;;23.40;13.15;;;13.10;99.90;;;;;;4952288;28;20410;-65
2022/10/30 03:30:44;;;;;;;27.92;12.82;;;13.10;99.90;;;;;;4949031;28;20039;-65
2022/10/30 03:33:10;;;;;;;22.70;13.15;;;13.00;99.90;;;;;;4954689;29;20054;-65
2022/10/30 03:35:35;;;;;;;32.65;13.45;;;13.00;99.90;;;;;;4955797;28;20071;-65
2022/10/30 03:38:01;;;;;;;30.13;13.38;;;13.00;99.90;;;;;;4948035;28;20115;-65
2022/10/30 03:40:26;;;;;;;24.77;12.63;;;13.10;99.90;;;;;;4944819;28;20039;-64
2022/10/30 03:42:52;;;;;;;25.40;13.73;;;12.90;99.90;;;;;;4955489;28;20047;-65
2022/10/30 03:45:17;;;;;;;20.40;12.48;;;12.70;99.90;;;;;;4949678;28;20047;-65
2022/10/30 03:47:43;;;;;;;26.90;13.07;;;12.60;99.90;;;;;;4949832;29;20405;-64
2022/10/30 03:50:09;;;;;;;26.40;13.13;;;12.50;99.90;;;;;;4954692;28;20051;-64
2022/10/30 03:52:34;;;;;;;24.08;12.68;;;12.70;99.90;;;;;;4952128;28;20046;-64
2022/10/30 03:55:00;;;;;;;22.92;13.25;;;12.80;99.90;;;;;;4952526;29;20050;-65
2022/10/30 03:57:26;;;;;;;25.23;12.85;;;12.80;99.90;;;;;;4954821;28;20043;-65
2022/10/30 03:59:51;;;;;;;23.33;13.80;;;12.90;99.90;;;;;;4955580;28;20048;-64
2022/10/30 04:02:17;;;;;;;20.60;12.68;;;12.90;99.90;;;;;;4949845;29;20119;-64
2022/10/30 04:04:42;;;;;;;26.73;13.65;;;12.80;99.90;;;;;;4954045;29;20552;-64
2022/10/30 04:07:08;;;;;;;28.85;13.40;;;12.70;99.90;;;;;;4955245;28;20042;-64
2022/10/30 04:09:33;;;;;;;31.48;13.75;;;12.70;99.90;;;;;;4943076;28;20038;-64
2022/10/30 04:11:59;;;;;;;27.63;12.73;;;12.70;99.90;;;;;;4952405;29;20502;-64
2022/10/30 04:14:24;;;;;;;21.65;12.88;;;12.60;99.90;;;;;;4954739;28;20030;-66
2022/10/30 04:16:50;;;;;;;22.63;13.25;;;12.50;99.90;;;;;;4954761;28;20078;-65
2022/10/30 04:19:16;;;;;;;34.00;14.02;;;12.60;99.90;;;;;;4938432;28;20039;-65
2022/10/30 04:21:42;;;;;;;25.85;14.52;;;12.70;99.90;;;;;;4954282;28;20039;-65
2022/10/30 04:24:08;;;;;;;26.20;14.18;;;12.80;99.90;;;;;;4954946;28;20046;-65
2022/10/30 04:26:34;;;;;;;26.10;13.57;;;12.80;99.90;;;;;;4946504;28;20036;-64
2022/10/30 04:28:59;;;;;;;24.13;13.10;;;12.90;99.90;;;;;;4936455;29;20495;-65
2022/10/30 04:31:25;;;;;;;27.80;13.30;;;12.90;99.90;;;;;;4948348;28;20486;-65
2022/10/30 04:33:51;;;;;;;24.20;13.85;;;12.90;99.90;;;;;;4948545;28;20122;-63
2022/10/30 04:36:17;;;;;;;26.00;13.82;;;12.80;99.90;;;;;;4937321;29;20039;-65
2022/10/30 04:38:43;;;;;;;28.77;13.75;;;12.80;99.90;;;;;;4950955;28;20050;-66
2022/10/30 04:41:08;;;;;;;27.70;13.18;;;12.80;99.90;;;;;;4952336;28;20042;-64
2022/10/30 04:43:34;;;;;;;27.15;14.35;;;12.80;99.90;;;;;;4952908;28;20099;-64
2022/10/30 04:46:04;;;;;;;28.65;14.38;;;12.80;99.90;;;;;;4947680;28;20625;-66
2022/10/30 04:48:29;;;;;;;24.60;13.48;;;12.80;99.90;;;;;;4948331;28;20043;-65
2022/10/30 04:50:57;;;;;;;31.85;14.05;;;12.80;99.90;;;;;;4952655;28;20034;-65
2022/10/30 04:53:23;;;;;;;26.35;14.38;;;12.80;99.90;;;;;;4944996;28;20043;-62
2022/10/30 04:55:52;;;;;;;30.35;14.25;;;12.70;99.90;;;;;;4950552;29;20043;-66
2022/10/30 04:58:18;;;;;;;29.35;15.40;;;12.70;99.90;;;;;;4954481;28;20031;-64
2022/10/30 05:00:43;;;;;;;28.98;14.20;;;12.70;99.90;;;;;;4946659;28;20110;-65
2022/10/30 05:03:24;;;;;;;28.10;15.15;;;12.70;99.90;;;;;;4938766;29;20039;-63
2022/10/30 05:06:02;;;;;;;26.67;14.33;;;12.70;99.90;;;;;;4954197;28;20036;-63
2022/10/30 05:08:28;;;;;;;29.35;15.07;;;12.60;99.90;;;;;;4948409;28;20047;-66
2022/10/30 05:10:54;;;;;;;30.30;15.15;;;12.60;99.90;;;;;;4937357;29;20375;-64
2022/10/30 05:13:21;;;;;;;29.35;14.77;;;12.60;99.90;;;;;;4953729;28;20093;-65
2022/10/30 05:15:46;;;;;;;26.17;13.77;;;12.50;99.90;;;;;;4954060;28;20561;-65
2022/10/30 05:18:12;;;;;;;33.00;14.15;;;12.40;99.90;;;;;;4943009;28;20047;-63
2022/10/30 05:20:38;;;;;;;23.42;11.82;;;12.30;99.90;;;;;;4944051;28;20097;-64
2022/10/30 05:23:04;;;;;;;24.65;12.77;;;12.10;99.90;;;;;;4950678;28;20740;-65
2022/10/30 05:25:30;;;;;;;23.13;12.25;;;12.00;99.90;;;;;;4947054;28;20134;-64
2022/10/30 05:27:59;;;;;;;21.90;12.48;;;11.90;99.90;;;;;;4946904;28;20125;-64
2022/10/30 05:30:26;;;;;;;27.15;13.95;;;11.80;99.90;;;;;;4950775;28;20409;-64
2022/10/30 05:33:00;;;;;;;20.38;13.15;;;11.80;99.90;;;;;;4950694;28;20043;-64
2022/10/30 05:35:26;;;;;;;29.23;12.32;;;11.80;99.90;;;;;;4940755;28;20043;-65
2022/10/30 05:37:51;;;;;;;27.80;14.63;;;11.70;99.90;;;;;;4947136;29;20047;-67
2022/10/30 05:40:17;;;;;;;26.50;15.32;;;11.70;99.90;;;;;;4949908;28;20465;-67
2022/10/30 05:42:47;;;;;;;27.75;14.25;;;11.70;99.90;;;;;;4939904;28;20035;-65
2022/10/30 05:45:13;;;;;;;27.58;13.88;;;11.70;99.90;;;;;;4946340;29;20039;-67
2022/10/30 05:47:39;;;;;;;26.48;13.90;;;11.70;99.90;;;;;;4941347;28;20031;-66
2022/10/30 05:50:05;;;;;;;25.20;15.18;;;11.70;99.90;;;;;;4947868;28;20514;-67
2022/10/30 05:52:31;;;;;;;32.65;15.35;;;11.80;99.90;;;;;;4950413;28;20047;-67
2022/10/30 05:54:57;;;;;;;26.77;14.32;;;11.80;99.90;;;;;;4949185;29;20061;-67
2022/10/30 05:57:22;;;;;;;27.45;15.35;;;11.70;99.90;;;;;;4942441;28;20051;-67
2022/10/30 05:59:48;;;;;;;27.70;14.35;;;11.70;99.90;;;;;;4938993;28;20044;-67
2022/10/30 06:02:15;;;;;;;28.92;14.25;;;11.60;99.90;;;;;;4949039;29;20135;-65
2022/10/30 06:04:41;;;;;;;23.80;14.77;;;11.60;99.90;;;;;;4950883;28;20118;-67
2022/10/30 06:07:06;;;;;;;28.63;16.45;;;11.70;99.90;;;;;;4947038;28;20122;-68
2022/10/30 06:09:32;;;;;;;28.52;16.15;;;11.70;99.90;;;;;;4939556;28;20051;-67
2022/10/30 06:11:57;;;;;;;28.52;17.50;;;11.70;99.90;;;;;;4949904;28;20047;-68
2022/10/30 06:14:23;;;;;;;34.05;17.13;;;11.70;99.90;;;;;;4950568;28;20054;-67
2022/10/30 06:16:49;;;;;;;35.92;17.48;;;11.70;99.90;;;;;;4931888;28;20043;-68
2022/10/30 06:19:14;;;;;;;40.88;17.48;;;11.80;99.90;;;;;;4945286;28;20480;-68
2022/10/30 06:21:40;;;;;;;29.60;16.80;;;11.80;99.90;;;;;;4951781;28;20039;-67
2022/10/30 06:24:06;;;;;;;31.85;16.38;;;11.80;99.90;;;;;;4953376;28;20043;-68
2022/10/30 06:26:31;;;;;;;35.63;17.33;;;11.80;99.90;;;;;;4945937;28;20122;-67
2022/10/30 06:28:57;;;;;;;35.53;17.60;;;11.80;99.90;;;;;;4949217;28;20118;-68
2022/10/30 06:31:23;;;;;;;30.10;16.80;;;11.80;99.90;;;;;;4949929;28;20039;-68
2022/10/30 06:33:48;;;;;;;38.50;17.55;;;11.80;99.90;;;;;;4931032;28;20664;-67
2022/10/30 06:36:16;;;;;;;34.03;17.10;;;11.80;99.90;;;;;;4945403;29;20091;-65
2022/10/30 06:38:42;;;;;;;36.53;16.95;;;11.80;99.90;;;;;;4943568;28;20055;-65
2022/10/30 06:41:08;;;;;;;33.25;17.13;;;11.80;99.90;;;;;;4952399;28;20328;-66
2022/10/30 06:43:34;;;;;;;31.17;15.82;;;11.80;99.90;;;;;;4953250;28;20486;-65
2022/10/30 06:45:59;;;;;;;29.30;15.95;;;11.80;99.90;;;;;;4950645;28;20131;-65
2022/10/30 06:48:25;;;;;;;36.42;16.70;;;11.80;99.90;;;;;;4942146;28;20452;-66
2022/10/30 06:50:54;;;;;;;30.08;16.30;;;11.80;99.90;;;;;;4939448;29;20048;-66
2022/10/30 06:53:20;;;;;;;30.25;16.23;;;11.80;99.90;;;;;;4946054;29;20043;-67
2022/10/30 06:55:59;;;;;;;31.67;17.23;;;11.80;99.90;;;;;;4951813;29;20117;-68
2022/10/30 06:58:26;;;;;;;29.10;16.30;;;11.80;99.90;;;;;;4942434;28;20032;-66
2022/10/30 07:00:52;;;;;;;24.95;16.48;;;11.90;99.90;;;;;;4959056;23;20056;-65
2022/10/30 07:03:18;;;;;;;31.20;16.70;;;11.90;99.90;;;;;;4951694;29;20077;-66
2022/10/30 07:05:43;;;;;;;36.95;17.52;;;11.90;99.90;;;;;;4940663;28;20469;-66
2022/10/30 07:08:09;;;;;;;34.80;17.40;;;12.00;99.90;;;;;;4936735;29;20130;-65
2022/10/30 07:10:35;;;;;;;36.60;17.80;;;12.10;99.90;;;;;;4929099;29;20052;-65
2022/10/30 07:13:01;;;;;;;31.00;16.55;;;12.10;99.90;;;;;;4924079;29;20103;-65
2022/10/30 07:15:27;;;;;;;36.15;17.30;;;12.10;99.90;;;;;;4932633;29;20071;-64
2022/10/30 07:17:57;;;;;;;31.08;16.77;;;12.20;99.90;;;;;;4934396;29;20075;-66
2022/10/30 07:20:25;;;;;;;37.70;18.45;;;12.20;99.90;;;;;;4928656;29;20054;-67
2022/10/30 07:22:51;;;;;;;33.63;17.80;;;12.20;99.90;;;;;;4924550;29;20056;-65
2022/10/30 07:25:17;;;;;;;34.75;19.33;;;12.30;99.90;;;;;;4935969;29;20054;-62
2022/10/30 07:27:49;;;;;;;36.70;18.77;;;12.30;99.90;;;;;;4937034;29;20040;-63
2022/10/30 07:30:17;;;;;;;34.38;18.17;;;12.40;99.90;;;;;;4935771;29;20054;-62
2022/10/30 07:32:43;;;;;;;33.42;17.90;;;12.50;99.90;;;;;;4925245;29;20510;-63
2022/10/30 07:35:11;;;;;;;35.53;19.52;;;12.50;99.90;;;;;;4935724;29;20127;-63
2022/10/30 07:37:37;;;;;;;39.45;18.90;;;12.50;99.90;;;;;;4928355;29;20044;-66
2022/10/30 07:40:03;;;;;;;35.75;18.30;;;12.60;99.90;;;;;;4921388;29;20499;-65
2022/10/30 07:42:29;;;;;;;37.72;18.65;;;12.70;99.90;;;;;;4930012;29;20130;-65
2022/10/30 07:44:54;;;;;;;41.50;20.30;;;12.80;99.90;;;;;;4936269;29;20122;-65
2022/10/30 07:47:20;;;;;;;39.20;19.85;;;12.90;99.90;;;;;;4931115;29;20044;-68
2022/10/30 07:49:45;;;;;;;40.15;19.55;;;12.90;99.90;;;;;;4917917;29;20036;-67
2022/10/30 07:52:11;;;;;;;40.08;19.52;;;13.00;99.90;;;;;;4928163;29;20134;-66
2022/10/30 07:54:36;;;;;;;34.47;19.77;;;13.10;99.90;;;;;;4924323;29;20044;-64
2022/10/30 07:57:02;;;;;;;33.42;19.80;;;13.10;99.90;;;;;;4917350;29;20467;-66
2022/10/30 07:59:28;;;;;;;34.65;19.35;;;13.20;99.90;;;;;;4935903;29;20040;-67
2022/10/30 08:01:53;;;;;;;35.13;19.88;;;13.20;99.90;;;;;;4935601;29;20054;-65
2022/10/30 08:04:19;;;;;;;33.85;19.38;;;13.30;99.90;;;;;;4927604;29;20038;-67
2022/10/30 08:06:45;;;;;;;34.33;20.48;;;13.30;99.90;;;;;;4928845;29;20118;-67
2022/10/30 08:09:10;;;;;;;40.63;19.85;;;13.40;99.90;;;;;;4926806;29;20130;-67
2022/10/30 08:11:36;;;;;;;34.70;20.42;;;13.40;99.90;;;;;;4922311;29;20459;-67
2022/10/30 08:14:01;;;;;;;31.67;19.88;;;13.50;99.90;;;;;;4926349;29;20048;-67
2022/10/30 08:16:27;;;;;;;33.67;20.63;;;13.50;99.90;;;;;;4923028;29;20122;-66
2022/10/30 08:18:53;;;;;;;36.95;20.35;;;13.60;99.90;;;;;;4932096;29;20044;-67
2022/10/30 08:21:19;;;;;;;39.88;20.80;;;13.70;99.90;;;;;;4935648;29;20083;-67
2022/10/30 08:23:44;;;;;;;37.70;20.45;;;13.80;99.90;;;;;;4925152;29;20040;-66
2022/10/30 08:26:10;;;;;;;37.30;20.42;;;13.90;99.90;;;;;;4927624;29;20138;-67
2022/10/30 08:28:36;;;;;;;38.70;21.13;;;14.00;99.90;;;;;;4918625;29;20103;-67
2022/10/30 08:31:02;;;;;;;34.55;20.73;;;14.10;99.90;;;;;;4932363;29;20044;-66
2022/10/30 08:33:27;;;;;;;40.65;19.17;;;14.10;99.90;;;;;;4935959;29;20039;-68
2022/10/30 08:35:56;;;;;;;34.30;20.48;;;14.20;99.90;;;;;;4937009;29;20047;-68
2022/10/30 08:38:22;;;;;;;41.95;21.63;;;14.40;99.90;;;;;;4932616;29;20110;-68
2022/10/30 08:40:48;;;;;;;37.83;20.20;;;14.50;99.90;;;;;;4918846;29;20036;-68
2022/10/30 08:43:13;;;;;;;35.78;20.02;;;14.50;99.90;;;;;;4935541;29;20050;-68
2022/10/30 08:45:40;;;;;;;39.45;20.52;;;14.60;99.90;;;;;;4929303;29;20039;-68
2022/10/30 08:48:09;;;;;;;36.63;19.17;;;14.70;99.90;;;;;;4924058;29;20170;-67
2022/10/30 08:50:34;;;;;;;34.40;19.75;;;14.70;99.90;;;;;;4929907;29;20503;-67
2022/10/30 08:53:06;;;;;;;34.10;19.15;;;14.70;99.90;;;;;;4934714;29;20047;-68
2022/10/30 08:55:32;;;;;;;;;;;14.70;99.90;;;;;;4927104;29;20032;-68
2022/10/30 08:57:58;;;;;;;40.17;18.70;;;14.80;99.90;;;;;;4925313;29;19919;-68
2022/10/30 09:00:24;;;;;;;37.10;19.80;;;14.80;99.90;;;;;;4933512;29;20457;-68
2022/10/30 09:02:49;;;;;;;32.45;19.92;;;15.00;99.90;;;;;;4926167;29;20529;-67
2022/10/30 09:05:15;;;;;;;34.67;18.88;;;15.00;99.90;;;;;;4928045;29;20044;-67
2022/10/30 09:07:41;;;;;;;34.42;19.38;;;15.10;99.90;;;;;;4929103;29;20132;-67
2022/10/30 09:10:07;;;;;;;37.72;20.35;;;15.10;99.90;;;;;;4923560;29;20119;-67
2022/10/30 09:12:33;;;;;;;36.85;20.35;;;15.10;99.90;;;;;;4926326;29;20485;-68
2022/10/30 09:14:59;;;;;;;31.23;19.70;;;15.10;99.90;;;;;;4928389;29;20083;-67
2022/10/30 09:17:24;;;;;;;35.58;19.50;;;15.20;99.90;;;;;;4927480;29;20078;-68
2022/10/30 09:19:50;;;;;;;35.58;19.98;;;15.20;99.90;;;;;;4925359;29;20102;-67
2022/10/30 09:22:15;;;;;;;33.70;21.05;;;15.30;99.90;;;;;;4928638;29;20044;-67
2022/10/30 09:24:41;;;;;;;43.17;21.85;;;15.30;99.90;;;;;;4926541;29;20047;-66
2022/10/30 09:27:07;;;;;;;40.33;21.20;;;15.30;99.90;;;;;;4925320;29;20504;-67
2022/10/30 09:29:32;;;;;;;38.40;21.20;;;15.50;99.90;;;;;;4923106;29;20090;-67
2022/10/30 09:31:59;;;;;;;40.97;21.83;;;15.50;99.90;;;;;;4926153;29;20043;-67
2022/10/30 09:34:25;;;;;;;37.67;21.05;;;15.60;99.90;;;;;;4928301;29;20043;-68
2022/10/30 09:36:51;;;;;;;43.42;19.73;;;15.60;99.90;;;;;;4922420;29;20044;-67
2022/10/30 09:39:17;;;;;;;34.42;19.38;;;15.80;99.90;;;;;;4927316;29;20513;-66
2022/10/30 09:41:57;;;;;;;33.53;19.38;;;15.80;99.90;;;;;;4934105;29;20047;-70
2022/10/30 09:44:38;;;;;;;33.63;19.13;;;15.90;99.90;;;;;;4921891;29;20071;-69
2022/10/30 09:47:24;;;;;;;36.95;19.95;;;16.00;99.90;;;;;;4932354;29;20087;-66
2022/10/30 09:50:14;;;;;;;35.97;20.30;;;16.10;99.90;;;;;;4934537;29;20043;-66
2022/10/30 09:52:54;;;;;;;33.33;19.23;;;16.10;99.90;;;;;;4925190;29;20044;-66
2022/10/30 09:55:33;;;;;;;38.05;20.05;;;16.20;99.90;;;;;;4928650;29;20044;-66
2022/10/30 09:58:23;;;;;;;35.33;20.60;;;16.30;99.90;;;;;;4934558;29;20047;-66
2022/10/30 10:01:06;;;;;;;33.25;18.80;;;16.40;99.90;;;;;;4928889;29;20043;-67
2022/10/30 10:03:44;;;;;;;35.30;19.88;;;16.50;99.90;;;;;;4929152;29;20187;-66
2022/10/30 10:06:17;;;;;;;33.83;19.98;;;16.50;99.90;;;;;;4934286;29;20040;-66
2022/10/30 10:09:12;;;;;;;31.73;19.50;;;16.60;99.90;;;;;;4928414;29;20114;-66
2022/10/30 10:11:44;;;;;;;39.30;19.17;;;16.70;99.90;;;;;;4913953;29;20059;-71
2022/10/30 10:14:17;;;;;;;31.90;18.88;;;16.70;99.90;;;;;;4934870;29;20410;-71
2022/10/30 10:16:48;;;;;;;33.17;19.15;;;16.70;99.90;;;;;;4938501;29;20046;-71
2022/10/30 10:19:33;;;;;;;;;;;16.80;99.90;;;;;;4928170;29;20058;-71
2022/10/30 10:22:01;;;;;;;33.60;18.30;;;16.80;99.90;;;;;;4929885;29;19958;-71
2022/10/30 10:24:33;;;;;;;37.10;19.55;;;16.90;99.90;;;;;;4937939;29;20039;-70
2022/10/30 10:27:20;;;;;;;37.97;19.52;;;16.90;99.90;;;;;;4928838;29;20043;-70
2022/10/30 10:30:04;;;;;;;32.00;18.95;;;17.00;99.90;;;;;;4932770;29;20051;-71
2022/10/30 10:32:56;;;;;;;33.15;19.60;;;17.10;99.90;;;;;;4917037;29;20447;-71
2022/10/30 10:35:27;;;;;;;;;;;17.10;99.90;;;;;;4927063;29;20462;-71
2022/10/30 10:38:05;;;;;;;34.90;19.45;;;17.10;99.90;;;;;;4936227;29;20301;-66
2022/10/30 10:40:49;;;;;;;36.20;18.77;;;17.20;99.90;;;;;;4936608;29;20087;-67
2022/10/30 10:43:17;;;;;;;32.78;19.25;;;17.20;99.90;;;;;;4927948;29;20052;-67
2022/10/30 10:45:54;;;;;;;33.03;19.10;;;17.20;99.90;;;;;;4935410;29;20119;-68
2022/10/30 10:48:34;;;;;;;31.92;18.90;;;17.30;99.90;;;;;;4936664;29;20055;-67
2022/10/30 10:51:14;;;;;;;37.17;20.20;;;17.30;99.90;;;;;;4935993;29;20126;-67
2022/10/30 10:53:52;;;;;;;35.30;18.05;;;17.40;99.90;;;;;;4922639;29;20040;-68
2022/10/30 10:56:20;;;;;;;38.83;23.75;;;17.50;99.90;;;;;;4929598;29;20052;-68
2022/10/30 10:58:54;;;;;;;30.75;19.50;;;17.60;99.90;;;;;;4931617;29;20052;-69
2022/10/30 11:01:52;;;;;;;36.00;19.02;;;17.60;99.90;;;;;;4929168;29;20063;-68
2022/10/30 11:04:30;;;;;;;33.05;19.15;;;17.70;99.90;;;;;;4927635;29;20048;-68
2022/10/30 11:06:57;;;;;;;30.95;17.88;;;17.80;99.90;;;;;;4933551;29;20037;-68
2022/10/30 11:09:26;;;;;;;31.38;18.90;;;17.80;99.90;;;;;;4936440;29;20526;-68
2022/10/30 11:11:53;;;;;;;34.00;19.23;;;17.90;99.90;;;;;;4936626;29;20118;-68
2022/10/30 11:14:22;;;;;;;35.03;19.10;;;18.00;99.90;;;;;;4937468;29;20047;-67
2022/10/30 11:17:09;;;;;;;46.55;19.45;;;18.00;99.90;;;;;;4924516;29;20059;-69
2022/10/30 11:19:35;;;;;;;33.95;18.15;;;18.00;99.90;;;;;;4927434;29;20863;-67
2022/10/30 11:22:02;;;;;;;29.13;18.83;;;18.20;99.90;;;;;;4928468;29;20040;-67
2022/10/30 11:24:34;;;;;;;30.48;18.58;;;18.20;99.90;;;;;;4929010;29;20040;-67
2022/10/30 11:27:21;;;;;;;32.42;18.95;;;18.30;99.90;;;;;;4932462;29;20043;-67
2022/10/30 11:29:55;;;;;;;34.03;18.58;;;18.40;99.90;;;;;;4929005;29;20036;-67
2022/10/30 11:32:25;;;;;;;29.58;16.10;;;18.50;99.90;;;;;;4923685;29;20066;-67
2022/10/30 11:35:08;;;;;;;30.52;16.38;;;18.50;99.90;;;;;;4929112;29;20045;-68
2022/10/30 11:37:39;;;;;;;29.98;17.67;;;18.60;99.90;;;;;;4928417;29;20123;-67
2022/10/30 11:40:10;;;;;;;27.83;16.42;;;18.60;99.90;;;;;;4918265;29;20051;-67
2022/10/30 11:42:46;;;;;;;35.17;17.52;;;18.60;99.90;;;;;;4918750;29;20052;-68
2022/10/30 11:45:18;;;;;;;31.45;17.40;;;18.70;99.90;;;;;;4928704;29;20123;-68
2022/10/30 11:47:45;;;;;;;29.10;16.88;;;18.70;99.90;;;;;;4929714;29;20080;-68
2022/10/30 11:50:22;;;;;;;29.20;16.10;;;18.80;99.90;;;;;;4923171;29;20064;-68
2022/10/30 11:52:53;;;;;;;38.03;17.35;;;18.80;99.90;;;;;;4935025;29;20040;-68
2022/10/30 11:55:23;;;;;;;31.40;17.35;;;18.90;99.90;;;;;;4927867;29;20573;-68
2022/10/30 11:57:51;;;;;;;32.83;18.27;;;19.00;99.90;;;;;;4924900;29;20047;-68
2022/10/30 12:00:21;;;;;;;34.78;17.92;;;19.00;99.90;;;;;;4925199;29;20047;-67
2022/10/30 12:02:52;;;;;;;36.10;17.98;;;19.10;99.90;;;;;;4928435;29;20050;-68
2022/10/30 12:05:24;;;;;;;33.13;17.98;;;19.20;99.90;;;;;;4927494;29;20383;-67
2022/10/30 12:07:51;;;;;;;32.95;18.65;;;19.30;99.90;;;;;;4921202;29;20088;-66
2022/10/30 12:10:24;;;;;;;28.27;17.90;;;19.30;99.90;;;;;;4928577;28;20047;-67
2022/10/30 12:12:50;;;;;;;31.33;17.83;;;19.40;99.90;;;;;;4925760;29;20119;-67
2022/10/30 12:15:17;;;;;;;34.13;17.30;;;19.50;99.90;;;;;;4926510;29;20083;-66
2022/10/30 12:18:04;;;;;;;31.08;17.17;;;19.50;99.90;;;;;;4931592;29;20054;-68
2022/10/30 12:20:31;;;;;;;30.25;18.00;;;19.50;99.90;;;;;;4925355;29;20050;-67
2022/10/30 12:22:57;;;;;;;34.90;17.40;;;19.50;99.90;;;;;;4920962;29;20054;-67
2022/10/30 12:25:28;;;;;;;32.72;17.30;;;19.60;99.90;;;;;;4926482;29;20127;-67
2022/10/30 12:28:05;;;;;;;35.17;17.60;;;19.60;99.90;;;;;;4931213;29;20054;-67
2022/10/30 12:30:51;;;;;;;31.33;17.08;;;19.60;99.90;;;;;;4934543;29;20137;-68
2022/10/30 12:33:25;;;;;;;30.83;17.00;;;19.60;99.90;;;;;;4920481;29;20055;-67
2022/10/30 12:36:00;;;;;;;34.58;17.13;;;19.50;99.90;;;;;;4929985;29;20054;-67
2022/10/30 12:38:53;;;;;;;29.23;16.77;;;19.50;99.90;;;;;;4924136;29;20039;-66
2022/10/30 12:41:43;;;;;;;30.08;16.48;;;19.50;99.90;;;;;;4923029;29;20070;-67